createdAt,value
2022-10-13T00:00:08.200Z,9.13
2022-10-13T00:02:39.383Z,9.17
2022-10-13T00:05:16.680Z,9.43
2022-10-13T00:08:23.244Z,9.10
2022-10-13T00:11:39.921Z,8.90
2022-10-13T00:21:38.715Z,8.50
2022-10-13T00:24:21.573Z,9.02
2022-10-13T00:27:48.246Z,8.63
2022-10-13T00:31:05.659Z,9.40
2022-10-13T00:34:55.160Z,8.57
2022-10-13T00:37:22.497Z,9.02
2022-10-13T00:39:49.691Z,8.93
2022-10-13T00:42:18.201Z,9.00
2022-10-13T00:45:07.343Z,9.57
2022-10-13T00:47:50.829Z,9.27
2022-10-13T00:50:25.894Z,9.25
2022-10-13T00:52:57.433Z,9.55
2022-10-13T00:55:30.519Z,9.52
2022-10-13T00:58:05.458Z,9.38
2022-10-13T01:00:35.808Z,9.13
2022-10-13T01:03:03.355Z,9.45
2022-10-13T01:05:31.201Z,9.73
2022-10-13T01:08:01.118Z,8.88
2022-10-13T01:10:50.562Z,8.80
2022-10-13T01:13:35.974Z,9.40
2022-10-13T01:16:23.910Z,9.10
2022-10-13T01:19:20.054Z,9.18
2022-10-13T01:22:07.279Z,9.10
2022-10-13T01:25:13.273Z,9.48
2022-10-13T01:28:09.199Z,8.05
2022-10-13T01:30:51.055Z,8.82
2022-10-13T01:33:30.195Z,9.07
2022-10-13T01:36:08.655Z,10.50
2022-10-13T01:38:47.422Z,9.18
2022-10-13T01:41:26.912Z,9.10
2022-10-13T01:44:29.530Z,9.98
2022-10-13T01:47:06.324Z,8.98
2022-10-13T01:49:35.838Z,9.18
2022-10-13T01:52:07.709Z,10.32
2022-10-13T01:54:35.121Z,11.60
2022-10-13T01:57:03.875Z,9.60
2022-10-13T01:59:36.163Z,10.85
2022-10-13T02:02:21.395Z,10.77
2022-10-13T02:05:15.503Z,10.70
2022-10-13T02:08:01.158Z,10.30
2022-10-13T02:10:50.262Z,11.02
2022-10-13T02:13:20.445Z,11.75
2022-10-13T02:15:51.763Z,11.60
2022-10-13T02:18:26.383Z,11.38
2022-10-13T02:20:55.332Z,12.02
2022-10-13T02:23:22.679Z,11.90
2022-10-13T02:25:51.929Z,11.95
2022-10-13T02:28:19.697Z,11.63
2022-10-13T02:30:47.179Z,11.85
2022-10-13T02:33:15.354Z,12.75
2022-10-13T02:35:43.432Z,12.15
2022-10-13T02:38:11.105Z,11.82
2022-10-13T02:40:39.206Z,11.85
2022-10-13T02:43:18.524Z,11.95
2022-10-13T02:45:56.739Z,12.55
2022-10-13T02:51:40.116Z,12.02
2022-10-13T02:55:02.189Z,12.88
2022-10-13T02:57:46.262Z,12.75
2022-10-13T03:03:31.790Z,12.18
2022-10-13T03:07:14.029Z,12.70
2022-10-13T03:13:38.096Z,13.65
2022-10-13T03:16:18.269Z,13.30
2022-10-13T03:19:25.293Z,13.45
2022-10-13T03:22:00.017Z,12.43
2022-10-13T03:24:33.091Z,13.35
2022-10-13T03:27:46.651Z,14.98
2022-10-13T03:30:14.209Z,13.45
2022-10-13T03:32:44.261Z,13.88
2022-10-13T03:35:11.470Z,14.02
2022-10-13T03:37:38.516Z,14.00
2022-10-13T03:40:06.944Z,13.05
2022-10-13T03:42:39.365Z,13.05
2022-10-13T03:47:36.897Z,13.63
2022-10-13T03:50:05.572Z,12.90
2022-10-13T03:52:36.291Z,13.13
2022-10-13T03:55:04.079Z,14.10
2022-10-13T03:57:36.922Z,13.45
2022-10-13T04:00:19.490Z,12.82
2022-10-13T04:02:54.462Z,12.23
2022-10-13T04:05:49.978Z,13.20
2022-10-13T04:08:33.101Z,14.55
2022-10-13T04:11:13.352Z,14.02
2022-10-13T04:14:14.729Z,11.95
2022-10-13T04:16:50.297Z,12.88
2022-10-13T04:19:35.862Z,12.18
2022-10-13T04:22:29.663Z,12.98
2022-10-13T04:28:06.765Z,12.10
2022-10-13T04:31:03.628Z,12.38
2022-10-13T04:34:53.573Z,11.93
2022-10-13T04:37:44.908Z,12.05
2022-10-13T04:40:23.710Z,12.13
2022-10-13T04:42:53.824Z,13.13
2022-10-13T04:45:47.198Z,12.80
2022-10-13T04:48:56.829Z,12.20
2022-10-13T04:52:15.079Z,13.00
2022-10-13T04:54:52.926Z,13.15
2022-10-13T04:57:35.332Z,12.57
2022-10-13T05:00:19.504Z,12.63
2022-10-13T05:02:46.734Z,12.90
2022-10-13T05:05:15.662Z,12.98
2022-10-13T05:07:45.291Z,13.55
2022-10-13T05:10:13.542Z,12.38
2022-10-13T05:12:47.734Z,11.77
2022-10-13T05:15:16.849Z,12.45
2022-10-13T05:17:45.564Z,12.35
2022-10-13T05:20:12.943Z,11.50
2022-10-13T05:22:40.959Z,12.88
2022-10-13T05:25:09.132Z,13.13
2022-10-13T05:27:36.280Z,12.27
2022-10-13T05:30:06.027Z,12.30
2022-10-13T05:32:35.588Z,12.10
2022-10-13T05:35:02.843Z,11.63
2022-10-13T05:37:30.448Z,12.00
2022-10-13T05:43:06.888Z,11.75
2022-10-13T05:45:35.286Z,13.60
2022-10-13T05:48:03.479Z,11.88
2022-10-13T05:50:30.426Z,12.82
2022-10-13T05:52:59.429Z,12.50
2022-10-13T05:55:27.594Z,12.10
2022-10-13T05:58:02.380Z,12.90
2022-10-13T06:00:36.598Z,13.02
2022-10-13T06:03:09.727Z,12.35
2022-10-13T06:05:49.053Z,12.63
2022-10-13T06:08:16.518Z,10.93
2022-10-13T06:10:45.528Z,13.07
2022-10-13T06:13:13.602Z,10.98
2022-10-13T06:15:40.505Z,12.18
2022-10-13T06:18:09.704Z,12.00
2022-10-13T06:20:37.341Z,11.45
2022-10-13T06:23:05.628Z,11.52
2022-10-13T06:25:32.964Z,11.40
2022-10-13T06:28:00.956Z,11.40
2022-10-13T06:30:28.404Z,11.60
2022-10-13T06:32:56.616Z,12.43
2022-10-13T06:35:24.773Z,12.30
2022-10-13T06:37:53.274Z,11.98
2022-10-13T06:40:20.304Z,11.48
2022-10-13T06:42:51.669Z,11.30
2022-10-13T06:45:22.559Z,12.07
2022-10-13T06:47:52.624Z,9.38
2022-10-13T06:50:19.571Z,12.07
2022-10-13T06:52:46.573Z,11.70
2022-10-13T06:55:13.603Z,11.30
2022-10-13T06:57:40.702Z,11.20
2022-10-13T07:00:09.170Z,12.18
2022-10-13T07:02:37.801Z,11.30
2022-10-13T07:05:06.011Z,11.43
2022-10-13T07:07:33.363Z,10.68
2022-10-13T07:10:01.332Z,10.65
2022-10-13T07:12:28.527Z,9.93
2022-10-13T07:14:55.528Z,11.07
2022-10-13T07:17:22.822Z,11.05
2022-10-13T07:19:50.233Z,10.45
2022-10-13T07:22:17.480Z,10.85
2022-10-13T07:24:44.929Z,10.65
2022-10-13T07:27:12.212Z,10.50
2022-10-13T07:29:39.477Z,10.13
2022-10-13T07:32:07.355Z,11.75
2022-10-13T07:34:34.994Z,10.82
2022-10-13T07:37:05.871Z,11.10
2022-10-13T07:39:35.214Z,11.90
2022-10-13T07:42:06.206Z,11.73
2022-10-13T07:44:35.430Z,11.57
2022-10-13T07:47:02.290Z,11.07
2022-10-13T07:49:29.353Z,11.52
2022-10-13T07:51:57.483Z,11.93
2022-10-13T07:54:26.626Z,11.23
2022-10-13T07:56:56.820Z,11.80
2022-10-13T07:59:24.724Z,12.05
2022-10-13T08:01:51.813Z,11.50
2022-10-13T08:04:21.132Z,12.07
2022-10-13T08:06:48.210Z,12.32
2022-10-13T08:09:16.194Z,12.05
2022-10-13T08:11:43.172Z,13.23
2022-10-13T08:14:12.426Z,10.35
2022-10-13T08:16:41.931Z,11.68
2022-10-13T08:19:09.296Z,10.45
2022-10-13T08:21:57.719Z,11.65
2022-10-13T08:24:24.273Z,10.75
2022-10-13T08:26:53.158Z,11.98
2022-10-13T08:29:22.946Z,10.60
2022-10-13T08:31:53.575Z,9.90
2022-10-13T08:34:23.780Z,9.25
2022-10-13T08:36:53.705Z,11.05
2022-10-13T08:39:22.363Z,10.55
2022-10-13T08:41:50.242Z,9.98
2022-10-13T08:47:19.285Z,8.98
2022-10-13T08:49:47.274Z,9.80
2022-10-13T08:52:41.952Z,9.48
2022-10-13T08:55:18.025Z,9.88
2022-10-13T08:57:45.548Z,9.88
2022-10-13T09:00:14.253Z,8.75
2022-10-13T09:02:45.563Z,10.10
2022-10-13T09:05:45.648Z,9.73
2022-10-13T09:08:19.601Z,9.30
2022-10-13T09:10:52.147Z,10.10
2022-10-13T09:15:48.588Z,10.80
2022-10-13T09:18:17.129Z,9.57
2022-10-13T09:20:47.071Z,8.85
2022-10-13T09:23:21.216Z,8.60
2022-10-13T09:25:52.034Z,9.13
2022-10-13T09:28:28.546Z,9.07
2022-10-13T09:31:10.286Z,9.18
2022-10-13T09:33:40.514Z,9.43
2022-10-13T09:36:13.665Z,8.27
2022-10-13T09:38:45.074Z,9.10
2022-10-13T09:41:20.881Z,8.20
2022-10-13T09:43:48.361Z,9.23
2022-10-13T09:46:39.789Z,8.82
2022-10-13T09:49:28.702Z,9.82
2022-10-13T09:52:01.952Z,9.77
2022-10-13T09:54:51.232Z,9.27
2022-10-13T09:57:20.876Z,10.13
2022-10-13T09:59:51.922Z,8.98
2022-10-13T10:02:21.360Z,9.25
2022-10-13T10:04:58.555Z,10.35
2022-10-13T10:07:30.036Z,9.90
2022-10-13T10:12:33.292Z,10.07
2022-10-13T10:15:00.888Z,10.60
2022-10-13T10:17:54.581Z,10.00
2022-10-13T10:21:14.677Z,10.18
2022-10-13T10:23:51.492Z,10.80
2022-10-13T10:26:38.050Z,10.13
2022-10-13T10:29:42.835Z,10.38
2022-10-13T10:32:31.259Z,11.18
2022-10-13T10:35:24.912Z,12.00
2022-10-13T10:38:14.684Z,12.00
2022-10-13T10:40:55.949Z,12.55
2022-10-13T10:43:49.940Z,12.45
2022-10-13T10:46:23.516Z,13.13
2022-10-13T10:48:55.306Z,13.55
2022-10-13T10:51:30.366Z,14.23
2022-10-13T10:54:23.878Z,14.20
2022-10-13T10:57:12.711Z,13.30
2022-10-13T11:00:01.852Z,15.40
2022-10-13T11:02:48.245Z,14.90
2022-10-13T11:05:17.457Z,16.20
2022-10-13T11:07:45.553Z,14.48
2022-10-13T11:10:25.376Z,16.08
2022-10-13T11:12:57.850Z,15.73
2022-10-13T11:15:41.318Z,14.88
2022-10-13T11:18:47.146Z,16.42
2022-10-13T11:21:14.626Z,16.20
2022-10-13T11:23:48.029Z,17.77
2022-10-13T11:26:26.129Z,15.88
2022-10-13T11:28:55.950Z,17.60
2022-10-13T11:31:49.401Z,17.02
2022-10-13T11:34:32.411Z,16.92
2022-10-13T11:37:03.446Z,17.40
2022-10-13T11:40:01.060Z,17.13
2022-10-13T11:46:57.213Z,16.88
2022-10-13T11:49:36.120Z,16.85
2022-10-13T11:52:27.329Z,16.67
2022-10-13T11:55:37.284Z,15.35
2022-10-13T11:58:17.105Z,15.80
2022-10-13T12:01:13.117Z,15.02
2022-10-13T12:04:19.787Z,15.80
2022-10-13T12:07:07.683Z,14.75
2022-10-13T12:09:59.230Z,14.27
2022-10-13T12:12:28.327Z,15.95
2022-10-13T12:15:02.633Z,15.95
2022-10-13T12:17:42.648Z,15.88
2022-10-13T12:20:41.862Z,17.10
2022-10-13T12:23:21.238Z,15.50
2022-10-13T12:28:55.993Z,17.05
2022-10-13T12:31:46.297Z,16.95
2022-10-13T12:34:24.592Z,16.88
2022-10-13T12:37:11.027Z,17.55
2022-10-13T12:39:47.931Z,15.63
2022-10-13T12:42:27.471Z,17.13
2022-10-13T12:48:01.918Z,16.00
2022-10-13T12:50:46.041Z,16.85
2022-10-13T12:53:37.144Z,15.43
2022-10-13T12:57:08.415Z,15.43
2022-10-13T13:00:41.345Z,16.85
2022-10-13T13:04:09.017Z,17.02
2022-10-13T13:06:43.895Z,17.80
2022-10-13T13:12:48.366Z,21.05
2022-10-13T13:15:24.345Z,21.88
2022-10-13T13:17:58.752Z,19.23
2022-10-13T13:20:36.781Z,19.67
2022-10-13T13:23:06.815Z,18.45
2022-10-13T13:25:38.381Z,20.27
2022-10-13T13:28:13.165Z,19.60
2022-10-13T13:30:59.288Z,19.85
2022-10-13T13:33:28.505Z,19.92
2022-10-13T13:38:36.615Z,18.20
2022-10-13T13:41:04.206Z,20.42
2022-10-13T13:43:31.680Z,22.33
2022-10-13T13:46:07.450Z,21.23
2022-10-13T13:48:38.413Z,21.65
2022-10-13T13:51:09.658Z,21.55
2022-10-13T13:53:38.904Z,21.70
2022-10-13T13:56:15.563Z,23.30
2022-10-13T13:58:44.801Z,22.33
2022-10-13T14:01:14.558Z,21.67
2022-10-13T14:03:42.003Z,21.52
2022-10-13T14:06:21.171Z,21.15
2022-10-13T14:08:51.228Z,20.15
2022-10-13T14:11:20.336Z,19.70
2022-10-13T14:13:47.542Z,19.60
2022-10-13T14:16:25.660Z,18.77
2022-10-13T14:19:03.105Z,19.70
2022-10-13T14:21:30.228Z,19.65
2022-10-13T14:24:06.816Z,17.98
2022-10-13T14:26:34.006Z,17.63
2022-10-13T14:29:02.364Z,18.75
2022-10-13T14:31:29.892Z,17.65
2022-10-13T14:33:58.014Z,16.45
2022-10-13T14:36:25.564Z,17.30
2022-10-13T14:38:53.269Z,17.85
2022-10-13T14:41:25.039Z,17.92
2022-10-13T14:43:54.679Z,18.45
2022-10-13T14:46:25.130Z,17.50
2022-10-13T14:51:37.218Z,15.68
2022-10-13T14:54:05.055Z,16.85
2022-10-13T14:56:41.041Z,16.60
2022-10-13T14:59:10.385Z,12.50
2022-10-13T15:01:40.548Z,11.82
2022-10-13T15:04:08.355Z,10.63
2022-10-13T15:06:45.065Z,11.48
2022-10-13T15:09:12.945Z,11.60
2022-10-13T15:11:40.227Z,11.02
2022-10-13T15:14:10.341Z,10.93
2022-10-13T15:16:41.736Z,10.70
2022-10-13T15:19:10.138Z,10.05
2022-10-13T15:21:38.041Z,9.52
2022-10-13T15:24:09.286Z,9.75
2022-10-13T15:26:37.477Z,9.63
2022-10-13T15:32:09.650Z,8.95
2022-10-13T15:34:40.222Z,9.07
2022-10-13T15:37:10.487Z,9.70
2022-10-13T15:39:40.957Z,9.60
2022-10-13T15:42:22.165Z,8.93
2022-10-13T15:48:03.301Z,9.45
2022-10-13T15:51:21.729Z,9.32
2022-10-13T15:53:51.128Z,9.07
2022-10-13T15:56:19.330Z,8.65
2022-10-13T15:58:53.990Z,9.55
2022-10-13T16:01:28.169Z,9.68
2022-10-13T16:03:57.146Z,8.98
2022-10-13T16:06:28.186Z,9.82
2022-10-13T16:09:04.393Z,10.18
2022-10-13T16:11:33.048Z,10.82
2022-10-13T16:14:03.271Z,10.10
2022-10-13T16:16:31.731Z,9.50
2022-10-13T16:19:01.862Z,9.80
2022-10-13T16:21:32.702Z,10.18
2022-10-13T16:24:00.247Z,10.48
2022-10-13T16:26:28.110Z,10.93
2022-10-13T16:28:56.001Z,10.57
2022-10-13T16:31:36.480Z,10.45
2022-10-13T16:34:04.255Z,10.65
2022-10-13T16:36:31.761Z,11.00
2022-10-13T16:39:39.928Z,11.07
2022-10-13T16:42:13.102Z,10.10
2022-10-13T16:45:09.939Z,10.50
2022-10-13T16:47:38.028Z,11.45
2022-10-13T16:52:52.668Z,13.30
2022-10-13T16:55:24.344Z,12.95
2022-10-13T16:58:23.941Z,12.13
2022-10-13T17:01:17.824Z,13.20
2022-10-13T17:03:54.510Z,12.90
2022-10-13T17:06:28.067Z,13.32
2022-10-13T17:09:03.481Z,12.93
2022-10-13T17:11:37.333Z,12.52
2022-10-13T17:14:07.692Z,13.07
2022-10-13T17:16:36.508Z,13.77
2022-10-13T17:19:12.425Z,14.15
2022-10-13T17:21:41.634Z,13.93
2022-10-13T17:24:11.989Z,15.07
2022-10-13T17:26:43.460Z,14.88
2022-10-13T17:29:13.175Z,14.15
2022-10-13T17:31:40.164Z,14.48
2022-10-13T17:34:09.528Z,14.68
2022-10-13T17:36:40.611Z,14.45
2022-10-13T17:39:15.098Z,15.13
2022-10-13T17:41:48.210Z,15.02
2022-10-13T17:44:26.360Z,15.35
2022-10-13T17:46:56.695Z,15.15
2022-10-13T17:49:24.624Z,15.40
2022-10-13T17:51:54.303Z,17.85
2022-10-13T17:54:26.649Z,15.18
2022-10-13T17:59:24.426Z,14.38
2022-10-13T18:01:51.716Z,16.73
2022-10-13T18:04:19.540Z,15.77
2022-10-13T18:06:50.005Z,15.52
2022-10-13T18:09:21.169Z,17.08
2022-10-13T18:11:54.602Z,16.33
2022-10-13T18:14:25.702Z,17.77
2022-10-13T18:16:58.109Z,18.38
2022-10-13T18:19:25.335Z,19.00
2022-10-13T18:21:55.783Z,19.15
2022-10-13T18:24:27.005Z,18.27
2022-10-13T18:26:57.926Z,19.20
2022-10-13T18:29:28.861Z,18.92
2022-10-13T18:32:00.226Z,18.70
2022-10-13T18:34:28.062Z,19.30
2022-10-13T18:36:56.041Z,17.45
2022-10-13T18:39:25.941Z,17.73
2022-10-13T18:41:54.284Z,17.55
2022-10-13T18:44:25.353Z,17.55
2022-10-13T18:46:56.929Z,17.75
2022-10-13T18:55:02.594Z,15.70
2022-10-13T18:57:31.880Z,16.40
2022-10-13T19:00:01.115Z,16.67
2022-10-13T19:02:37.594Z,14.02
2022-10-13T19:06:10.749Z,14.85
2022-10-13T19:08:42.647Z,14.63
2022-10-13T19:11:18.360Z,15.10
2022-10-13T19:13:54.011Z,14.45
2022-10-13T19:16:29.811Z,13.90
2022-10-13T19:18:59.143Z,15.02
2022-10-13T19:21:28.987Z,15.35
2022-10-13T19:29:39.496Z,15.38
2022-10-13T19:32:10.587Z,15.30
2022-10-13T19:34:39.887Z,15.45
2022-10-13T19:37:09.443Z,16.58
2022-10-13T19:39:38.967Z,14.98
2022-10-13T19:42:06.184Z,16.95
2022-10-13T19:44:33.182Z,16.92
2022-10-13T19:47:00.186Z,14.60
2022-10-13T19:49:28.381Z,14.80
2022-10-13T19:51:56.618Z,14.95
2022-10-13T19:54:24.588Z,14.40
2022-10-13T19:56:53.834Z,15.00
2022-10-13T19:59:21.796Z,14.75
2022-10-13T20:01:52.942Z,14.95
2022-10-13T20:07:48.346Z,17.58
2022-10-13T20:10:15.522Z,16.25
2022-10-13T20:12:43.586Z,15.65
2022-10-13T20:15:11.371Z,16.35
2022-10-13T20:17:40.475Z,16.60
2022-10-13T20:20:08.896Z,16.70
2022-10-13T20:22:36.127Z,17.60
2022-10-13T20:25:09.078Z,16.20
2022-10-13T20:27:37.133Z,16.73
2022-10-13T20:30:04.655Z,16.08
2022-10-13T20:32:32.872Z,17.25
2022-10-13T20:35:03.290Z,18.02
2022-10-13T20:37:37.758Z,18.00
2022-10-13T20:40:23.337Z,18.35
2022-10-13T20:43:21.204Z,16.75
2022-10-13T20:46:22.008Z,16.98
2022-10-13T20:55:41.978Z,16.02
2022-10-13T20:58:14.410Z,16.63
2022-10-13T21:00:45.629Z,16.90
2022-10-13T21:03:28.920Z,17.58
2022-10-13T21:09:07.750Z,19.10
2022-10-13T21:11:36.857Z,20.80
2022-10-13T21:14:08.518Z,20.92
2022-10-13T21:16:38.222Z,19.77
2022-10-13T21:19:16.698Z,19.52
2022-10-13T21:21:49.472Z,19.77
2022-10-13T21:27:16.437Z,20.42
2022-10-13T21:29:44.852Z,20.20
2022-10-13T21:32:59.819Z,21.30
2022-10-13T21:35:44.559Z,22.42
2022-10-13T21:38:16.381Z,23.48
2022-10-13T21:40:49.392Z,22.75
2022-10-13T21:43:23.698Z,22.80
2022-10-13T21:45:51.085Z,20.23
2022-10-13T21:48:18.239Z,21.55
2022-10-13T21:50:47.473Z,20.38
2022-10-13T21:53:15.570Z,20.88
2022-10-13T21:55:42.755Z,20.55
2022-10-13T21:58:10.355Z,21.63
2022-10-13T22:00:46.720Z,20.52
2022-10-13T22:03:17.268Z,18.15
2022-10-13T22:05:48.423Z,19.02
2022-10-13T22:09:28.662Z,18.98
2022-10-13T22:11:59.726Z,19.85
2022-10-13T22:14:28.081Z,19.83
2022-10-13T22:16:58.201Z,20.02
2022-10-13T22:19:41.895Z,18.83
2022-10-13T22:25:45.387Z,18.27
2022-10-13T22:28:13.738Z,20.00
2022-10-13T22:30:48.698Z,19.33
2022-10-13T22:33:18.377Z,20.15
2022-10-13T22:35:53.362Z,18.50
2022-10-13T22:38:28.220Z,18.92
2022-10-13T22:41:37.428Z,19.33
2022-10-13T22:44:05.025Z,18.38
2022-10-13T22:46:37.292Z,18.40
2022-10-13T22:49:05.270Z,19.73
2022-10-13T22:51:41.414Z,18.67
2022-10-13T22:54:30.487Z,18.80
2022-10-13T22:57:05.739Z,18.17
2022-10-13T22:59:33.694Z,17.75
2022-10-13T23:02:00.760Z,17.95
2022-10-13T23:04:28.635Z,19.73
2022-10-13T23:06:55.684Z,18.08
2022-10-13T23:09:25.793Z,19.55
2022-10-13T23:11:59.674Z,17.35
2022-10-13T23:14:29.858Z,18.27
2022-10-13T23:16:57.465Z,18.17
2022-10-13T23:19:24.730Z,17.92
2022-10-13T23:21:52.027Z,17.60
2022-10-13T23:24:20.717Z,17.83
2022-10-13T23:28:05.071Z,18.17
2022-10-13T23:30:32.735Z,17.30
2022-10-13T23:33:15.073Z,17.13
2022-10-13T23:36:00.910Z,17.35
2022-10-13T23:38:43.617Z,17.00
2022-10-13T23:41:15.402Z,17.42
2022-10-13T23:43:43.064Z,17.15
2022-10-13T23:46:13.229Z,18.17
2022-10-13T23:48:44.673Z,18.07
2022-10-13T23:51:18.018Z,17.92
2022-10-13T23:53:45.699Z,18.23
2022-10-13T23:56:15.595Z,18.27
2022-10-13T23:58:44.498Z,18.17
